Time;durP1;ratioP1;P1;durP2;ratioP2;P2;SDS_P1;SDS_P2;PMS_P1;PMS_P2;Temp;Humidity;BMP_temperature;BMP_pressure;BME280_temperature;BME280_humidity;BME280_pressure;Samples;Min_cycle;Max_cycle;Signal;HPM_P1;HPM_P2
2021/10/25 00:02:08;;;;;;;11.30;5.30;;;;;;;7.42;67.92;100719.97;4980044;28;20063;-82
2021/10/25 00:04:35;;;;;;;9.20;5.40;;;;;;;7.43;68.50;100718.84;4996127;28;20050;-83
2021/10/25 00:07:06;;;;;;;8.20;5.70;;;;;;;7.39;67.99;100724.16;4998259;28;20050;-82
2021/10/25 00:09:34;;;;;;;8.55;5.70;;;;;;;7.36;67.88;100715.59;4997791;28;20055;-82
2021/10/25 00:12:02;;;;;;;10.38;5.90;;;;;;;7.31;68.13;100722.81;4988195;28;20063;-82
2021/10/25 00:14:30;;;;;;;7.50;5.50;;;;;;;7.29;68.31;100729.75;4978627;28;20488;-82
2021/10/25 00:16:57;;;;;;;6.03;4.97;;;;;;;7.25;67.89;100723.94;4997407;28;20054;-82
2021/10/25 00:19:25;;;;;;;8.25;5.72;;;;;;;7.23;68.76;100720.63;4997969;28;20472;-81
2021/10/25 00:21:54;;;;;;;8.20;5.75;;;;;;;7.18;68.56;100717.91;4990003;28;20428;-82
2021/10/25 00:24:22;;;;;;;9.98;5.55;;;;;;;7.16;68.97;100722.91;4978115;28;20062;-82
2021/10/25 00:26:51;;;;;;;10.32;6.50;;;;;;;7.14;69.30;100727.91;4992206;28;20077;-82
2021/10/25 00:29:18;;;;;;;12.27;6.10;;;;;;;7.09;69.19;100725.16;4997797;28;20054;-83
2021/10/25 00:31:46;;;;;;;7.45;5.78;;;;;;;7.10;69.01;100712.97;4998181;28;20058;-82
2021/10/25 00:34:14;;;;;;;8.90;6.35;;;;;;;7.07;69.71;100716.28;4998200;28;20065;-83
2021/10/25 00:36:41;;;;;;;7.60;5.82;;;;;;;7.01;69.40;100714.66;4996683;28;20042;-83
2021/10/25 00:39:08;;;;;;;8.93;5.65;;;;;;;6.97;69.71;100710.81;4994763;28;20058;-82
2021/10/25 00:41:36;;;;;;;7.88;5.53;;;;;;;6.96;69.78;100723.00;5001843;28;20065;-82
2021/10/25 00:44:05;;;;;;;9.07;5.85;;;;;;;6.95;70.40;100715.78;5002713;28;20061;-82
2021/10/25 00:46:33;;;;;;;10.35;6.28;;;;;;;6.93;70.53;100709.72;5001282;28;20053;-82
2021/10/25 00:49:01;;;;;;;6.63;5.75;;;;;;;6.93;70.23;100707.78;5001214;28;20057;-82
2021/10/25 00:51:31;;;;;;;8.43;6.03;;;;;;;6.90;70.24;100711.13;5001977;28;20058;-82
2021/10/25 00:53:58;;;;;;;7.65;5.20;;;;;;;6.88;69.93;100700.31;5001834;28;20058;-83
2021/10/25 00:56:26;;;;;;;8.18;5.75;;;;;;;6.87;70.90;100709.75;5002046;28;20053;-83
2021/10/25 00:58:53;;;;;;;7.60;5.63;;;;;;;6.86;70.40;100710.84;5001881;28;20051;-82
2021/10/25 01:01:22;;;;;;;9.45;5.68;;;;;;;6.81;70.58;100710.88;5002025;28;20046;-83
2021/10/25 01:03:49;;;;;;;8.55;6.10;;;;;;;6.81;69.86;100710.88;5002065;28;20054;-83
2021/10/25 01:06:16;;;;;;;8.85;6.10;;;;;;;6.82;70.36;100708.94;5001658;28;20050;-83
2021/10/25 01:08:44;;;;;;;10.80;6.32;;;;;;;6.84;70.81;100712.25;5001823;28;20054;-83
2021/10/25 01:11:12;;;;;;;9.85;5.75;;;;;;;6.81;70.40;100708.13;5001926;28;20046;-83
2021/10/25 01:13:41;;;;;;;7.70;5.47;;;;;;;6.79;70.31;100704.78;5001478;28;20386;-82
2021/10/25 01:16:10;;;;;;;7.75;5.68;;;;;;;6.78;70.58;100711.44;5001912;28;20069;-82
2021/10/25 01:18:39;;;;;;;8.73;6.18;;;;;;;6.75;70.55;100712.00;5001501;28;20058;-83
2021/10/25 01:21:09;;;;;;;10.15;6.10;;;;;;;6.73;70.33;100711.47;5001868;28;20058;-82
2021/10/25 01:23:36;;;;;;;8.85;5.82;;;;;;;6.71;70.15;100705.38;5002266;28;20050;-82
2021/10/25 01:26:05;;;;;;;8.77;5.68;;;;;;;6.72;70.25;100712.59;5001058;28;20075;-83
2021/10/25 01:28:32;;;;;;;7.57;5.85;;;;;;;6.72;70.75;100704.28;5001160;28;20061;-82
2021/10/25 01:31:00;;;;;;;9.10;5.85;;;;;;;6.68;70.60;100703.19;4996676;28;20054;-83
2021/10/25 01:33:29;;;;;;;9.32;5.50;;;;;;;6.60;70.57;100703.78;4981742;28;20051;-82
2021/10/25 01:35:56;;;;;;;8.30;6.65;;;;;;;6.60;71.05;100703.78;4981530;28;20062;-82
2021/10/25 01:38:25;;;;;;;9.60;6.10;;;;;;;6.60;71.12;100701.00;4989436;28;20058;-82
2021/10/25 01:40:55;;;;;;;9.88;5.72;;;;;;;6.57;70.56;100707.09;5000688;28;20062;-82
2021/10/25 01:43:24;;;;;;;10.30;6.32;;;;;;;6.50;71.03;100702.69;4999409;28;20047;-83
2021/10/25 01:45:54;;;;;;;8.88;5.90;;;;;;;6.56;72.29;100697.97;5000466;28;20062;-82
2021/10/25 01:48:22;;;;;;;7.93;5.88;;;;;;;6.64;72.15;100696.56;5000539;28;20058;-82
2021/10/25 01:50:50;;;;;;;10.63;6.63;;;;;;;6.65;71.85;100690.72;4987992;28;20406;-82
2021/10/25 01:53:17;;;;;;;8.50;5.72;;;;;;;6.66;72.50;100691.56;5010410;28;20042;-82
2021/10/25 01:55:47;;;;;;;8.75;6.10;;;;;;;6.73;74.33;100694.03;5017278;28;20058;-82
2021/10/25 01:58:15;;;;;;;8.23;5.95;;;;;;;6.81;72.74;100687.91;4999825;28;20054;-82
2021/10/25 02:00:42;;;;;;;7.72;5.90;;;;;;;6.90;74.18;100694.50;4998876;28;20085;-82
2021/10/25 02:03:09;;;;;;;7.65;5.72;;;;;;;6.96;72.49;100692.53;4990826;28;20058;-82
2021/10/25 02:05:38;;;;;;;10.07;5.72;;;;;;;6.96;71.69;100685.06;5003138;28;20049;-82
2021/10/25 02:08:06;;;;;;;8.10;5.50;;;;;;;6.98;71.56;100695.84;5019265;28;20050;-82
2021/10/25 02:10:34;;;;;;;8.88;5.78;;;;;;;6.97;70.65;100688.66;4983377;28;20419;-82
2021/10/25 02:13:03;;;;;;;9.65;6.30;;;;;;;6.98;71.13;100691.13;4994317;28;20078;-82
2021/10/25 02:15:30;;;;;;;8.63;6.07;;;;;;;6.94;70.54;100689.22;4980629;28;20061;-83
2021/10/25 02:17:59;;;;;;;9.65;6.00;;;;;;;6.90;70.83;100686.19;4980711;28;20066;-82
2021/10/25 02:20:26;;;;;;;7.90;6.03;;;;;;;6.91;71.30;100685.09;4982397;28;20050;-82
2021/10/25 02:22:53;;;;;;;8.50;6.18;;;;;;;6.91;71.30;100669.31;4998358;28;20054;-82
2021/10/25 02:25:21;;;;;;;10.98;6.07;;;;;;;6.87;71.28;100675.69;5001273;28;20054;-83
2021/10/25 02:27:48;;;;;;;8.85;6.07;;;;;;;6.85;71.12;100675.16;4999956;28;20495;-83
2021/10/25 02:30:17;;;;;;;8.25;6.28;;;;;;;6.87;70.97;100672.94;4998679;28;20050;-83
2021/10/25 02:32:46;;;;;;;9.55;6.43;;;;;;;6.90;72.08;100664.84;5001203;28;20054;-82
2021/10/25 02:35:17;;;;;;;9.60;5.93;;;;;;;6.90;71.56;100653.78;4991003;28;20066;-83
2021/10/25 02:37:45;;;;;;;9.88;6.57;;;;;;;6.91;71.82;100655.47;4998839;28;20054;-82
2021/10/25 02:40:13;;;;;;;8.45;6.03;;;;;;;6.90;71.08;100658.50;4998811;28;20054;-83
2021/10/25 02:42:41;;;;;;;8.90;5.43;;;;;;;6.88;71.25;100649.66;5000167;28;20058;-83
2021/10/25 02:45:12;;;;;;;9.65;6.47;;;;;;;6.87;70.72;100650.78;5001102;28;20054;-83
2021/10/25 02:47:41;;;;;;;8.30;5.97;;;;;;;6.84;71.65;100646.63;5000524;28;20054;-83
2021/10/25 02:50:10;;;;;;;9.93;5.78;;;;;;;6.84;71.79;100646.63;4992559;28;20055;-83
2021/10/25 02:52:37;;;;;;;11.05;7.55;;;;;;;6.86;71.72;100651.88;5000719;28;20054;-82
2021/10/25 02:55:05;;;;;;;9.13;6.18;;;;;;;6.88;72.33;100652.41;5000497;28;20050;-82
2021/10/25 02:57:33;;;;;;;7.43;5.82;;;;;;;6.88;71.57;100647.69;4979151;28;20522;-83
2021/10/25 03:00:05;;;;;;;9.10;6.35;;;;;;;6.89;72.45;100651.31;4987069;28;20073;-82
2021/10/25 03:02:33;;;;;;;9.32;6.75;;;;;;;6.93;72.04;100637.72;4999230;28;20050;-82
2021/10/25 03:05:02;;;;;;;12.23;6.32;;;;;;;6.88;72.37;100642.16;4995496;28;20490;-83
2021/10/25 03:07:29;;;;;;;9.90;5.93;;;;;;;6.76;71.85;100638.94;5005044;28;20055;-82
2021/10/25 03:09:57;;;;;;;8.68;5.85;;;;;;;6.77;71.27;100628.69;4999849;28;20416;-82
2021/10/25 03:12:24;;;;;;;7.47;6.03;;;;;;;6.78;70.85;100636.69;4995161;28;20415;-82
2021/10/25 03:14:59;;;;;;;10.32;6.25;;;;;;;6.75;70.77;100637.25;4999693;28;20062;-82
2021/10/25 03:17:26;;;;;;;8.05;6.22;;;;;;;6.75;71.55;100637.25;5006343;28;20484;-83
2021/10/25 03:19:53;;;;;;;10.93;6.57;;;;;;;6.73;71.21;100628.41;4996839;28;20046;-82
2021/10/25 03:22:22;;;;;;;10.00;6.18;;;;;;;6.73;71.42;100633.97;4987637;28;20049;-82
2021/10/25 03:24:50;;;;;;;8.95;6.45;;;;;;;6.66;71.82;100639.81;4999145;28;20513;-82
2021/10/25 03:27:18;;;;;;;8.85;6.60;;;;;;;6.63;71.37;100628.47;4999300;28;20051;-82
2021/10/25 03:29:50;;;;;;;7.82;6.32;;;;;;;6.64;71.01;100636.50;4999020;28;20055;-82
2021/10/25 03:32:18;;;;;;;8.82;6.32;;;;;;;6.61;71.31;100630.69;4998541;28;20061;-82
2021/10/25 03:34:45;;;;;;;9.77;6.65;;;;;;;6.64;71.56;100621.84;4998449;28;20062;-82
2021/10/25 03:37:13;;;;;;;8.18;6.13;;;;;;;6.62;71.02;100622.09;4993847;28;20058;-82
2021/10/25 03:39:47;;;;;;;11.07;6.22;;;;;;;6.60;71.50;100617.97;4998761;28;20057;-82
2021/10/25 03:42:21;;;;;;;10.80;6.57;;;;;;;6.59;71.75;100614.34;4990115;28;20047;-82
2021/10/25 03:44:53;;;;;;;8.88;6.10;;;;;;;6.60;71.55;100621.56;4979128;28;20054;-82
2021/10/25 03:47:24;;;;;;;9.65;7.05;;;;;;;6.55;72.27;100617.97;4979515;28;20420;-83
2021/10/25 03:49:55;;;;;;;10.35;6.97;;;;;;;6.52;72.59;100616.63;4979062;28;20054;-83
2021/10/25 03:52:26;;;;;;;8.68;6.65;;;;;;;6.59;72.79;100621.84;4988537;28;20054;-82
2021/10/25 03:55:04;;;;;;;9.27;6.45;;;;;;;6.59;71.87;100619.06;4997941;28;20050;-82
2021/10/25 04:01:09;;;;;;;8.85;6.13;;;;;;;6.59;72.55;100619.91;4957490;28;20398;-82
2021/10/25 04:25:56;;;;;;;12.02;6.97;;;;;;;6.71;71.85;100603.78;5004892;28;20053;-83
2021/10/25 04:28:27;;;;;;;8.07;5.88;;;;;;;6.65;72.03;100599.38;4998174;28;20058;-84
2021/10/25 04:30:57;;;;;;;8.20;6.30;;;;;;;6.61;71.80;100608.53;4995887;28;20415;-83
2021/10/25 04:33:25;;;;;;;8.75;5.75;;;;;;;6.61;71.42;100608.53;4979755;28;20054;-83
2021/10/25 04:35:52;;;;;;;7.75;5.80;;;;;;;6.52;71.52;100604.72;4985030;28;20531;-83
2021/10/25 04:38:20;;;;;;;8.15;5.63;;;;;;;6.49;71.55;100611.66;4998988;28;20046;-83
2021/10/25 04:40:48;;;;;;;8.75;5.65;;;;;;;6.49;71.04;100606.13;4998832;28;20046;-84
2021/10/25 04:43:17;;;;;;;9.10;6.00;;;;;;;6.48;71.37;100610.00;4996022;28;20154;-83
2021/10/25 04:45:47;;;;;;;8.32;5.88;;;;;;;6.46;71.32;100607.50;4978545;28;20419;-83
2021/10/25 04:48:15;;;;;;;10.73;5.82;;;;;;;6.39;71.73;100612.53;4978834;28;20051;-82
2021/10/25 04:50:42;;;;;;;9.52;5.75;;;;;;;6.30;71.42;100604.00;4985954;28;20047;-82
2021/10/25 04:53:10;;;;;;;16.80;7.72;;;;;;;6.28;72.13;100614.50;4999426;28;20053;-82
2021/10/25 04:55:37;;;;;;;8.18;5.88;;;;;;;6.28;71.69;100613.69;4997430;28;20050;-83
2021/10/25 04:58:04;;;;;;;8.10;5.45;;;;;;;6.22;71.77;100603.75;4997411;28;20057;-82
2021/10/25 05:00:32;;;;;;;8.10;6.13;;;;;;;6.21;71.79;100599.31;4998159;28;20047;-82
2021/10/25 05:03:02;;;;;;;10.50;6.13;;;;;;;6.18;72.08;100606.25;4997558;28;20069;-82
2021/10/25 05:05:29;;;;;;;;;;;;;;;6.10;71.76;100604.06;4986282;28;20050;-83
2021/10/25 05:07:56;;;;;;;6.95;5.35;;;;;;;6.07;71.48;100597.16;4997554;28;19922;-82
2021/10/25 05:10:25;;;;;;;10.98;5.93;;;;;;;6.03;71.58;100598.81;4996604;28;20396;-82
2021/10/25 05:12:53;;;;;;;8.60;5.45;;;;;;;6.02;71.75;100597.16;4997973;28;20431;-82
2021/10/25 05:15:27;;;;;;;9.40;5.82;;;;;;;6.00;71.27;100588.31;4998018;28;20061;-82
2021/10/25 05:17:54;;;;;;;7.85;5.65;;;;;;;5.99;71.75;100591.38;4995674;28;20050;-82
2021/10/25 05:20:25;;;;;;;9.15;6.13;;;;;;;6.00;72.01;100590.25;4996544;28;20061;-82
2021/10/25 05:22:52;;;;;;;8.45;6.25;;;;;;;5.98;72.64;100593.28;5002906;28;20074;-82
2021/10/25 05:25:21;;;;;;;7.25;5.65;;;;;;;5.91;72.48;100592.75;5005023;28;20130;-83
2021/10/25 05:27:48;;;;;;;8.37;5.13;;;;;;;5.84;72.73;100601.34;5013867;28;20050;-82
2021/10/25 05:30:16;;;;;;;7.55;5.45;;;;;;;5.88;72.39;100591.38;4994786;28;20062;-82
2021/10/25 05:32:43;;;;;;;8.75;5.30;;;;;;;5.85;73.04;100593.84;4993490;28;20062;-82
2021/10/25 05:35:10;;;;;;;8.25;5.25;;;;;;;5.84;72.45;100594.97;4988801;28;20073;-83
2021/10/25 05:37:39;;;;;;;8.35;5.47;;;;;;;5.77;72.95;100586.97;5000129;28;20054;-83
2021/10/25 05:40:08;;;;;;;7.00;5.30;;;;;;;5.77;72.88;100595.25;5000647;28;20061;-82
2021/10/25 05:42:36;;;;;;;9.05;6.00;;;;;;;5.72;73.25;100591.69;4996510;28;20503;-82
2021/10/25 05:45:04;;;;;;;10.07;5.97;;;;;;;5.72;73.09;100592.50;4993080;28;20065;-82
2021/10/25 05:47:32;;;;;;;9.65;6.22;;;;;;;5.72;72.85;100595.28;4981681;28;20415;-83
2021/10/25 05:50:00;;;;;;;10.10;5.88;;;;;;;5.77;73.03;100594.44;4981444;28;20063;-83
2021/10/25 05:52:27;;;;;;;10.38;6.10;;;;;;;5.76;72.90;100587.25;4986399;28;20065;-83
2021/10/25 05:54:56;;;;;;;14.88;7.47;;;;;;;5.74;72.96;100582.00;4996503;28;20042;-83
2021/10/25 05:57:24;;;;;;;12.85;7.53;;;;;;;5.73;73.10;100580.31;4999637;28;20057;-85
2021/10/25 05:59:51;;;;;;;12.50;7.95;;;;;;;5.81;73.12;100576.19;4998385;28;20062;-83
2021/10/25 06:02:25;;;;;;;14.52;7.95;;;;;;;5.83;73.32;100579.50;5007135;28;20392;-81
2021/10/25 06:04:52;;;;;;;14.88;8.40;;;;;;;5.86;73.26;100576.19;5015831;28;20064;-81
2021/10/25 06:07:20;;;;;;;15.48;8.20;;;;;;;5.90;72.77;100583.63;5003828;28;20041;-81
2021/10/25 06:09:47;;;;;;;14.38;8.05;;;;;;;5.92;73.57;100585.28;4999328;28;20050;-82
2021/10/25 06:12:17;;;;;;;14.30;7.88;;;;;;;5.93;73.15;100578.66;5014771;28;20050;-82
2021/10/25 06:14:46;;;;;;;12.20;6.63;;;;;;;5.93;73.51;100586.94;5013417;28;20047;-82
2021/10/25 06:17:24;;;;;;;13.05;6.45;;;;;;;5.93;73.47;100581.41;5008155;28;20054;-83
2021/10/25 06:19:54;;;;;;;13.02;7.10;;;;;;;5.96;73.34;100569.81;4996917;28;20058;-81
2021/10/25 06:22:22;;;;;;;14.23;7.75;;;;;;;6.03;74.04;100571.19;4989731;28;20407;-81
2021/10/25 06:24:52;;;;;;;11.93;7.53;;;;;;;6.08;74.02;100567.56;4984688;28;20058;-81
2021/10/25 06:27:21;;;;;;;14.82;9.50;;;;;;;6.10;73.76;100559.81;4999603;28;20050;-81
2021/10/25 06:29:49;;;;;;;17.80;9.20;;;;;;;6.15;73.16;100567.25;4997420;28;20079;-80
2021/10/25 06:32:16;;;;;;;16.60;8.77;;;;;;;6.14;73.21;100574.72;4981125;28;20493;-81
2021/10/25 06:34:53;;;;;;;13.73;8.27;;;;;;;6.16;72.86;100582.75;4995085;28;20054;-81
2021/10/25 06:37:23;;;;;;;12.18;6.75;;;;;;;6.16;72.74;100585.50;4998121;28;20046;-81
2021/10/25 06:39:54;;;;;;;9.88;6.05;;;;;;;6.15;72.80;100592.16;4999990;28;20065;-84
2021/10/25 06:42:26;;;;;;;13.50;6.10;;;;;;;6.16;73.13;100591.03;4995754;28;20050;-81
2021/10/25 06:44:54;;;;;;;9.63;5.70;;;;;;;6.14;72.78;100593.28;4992432;28;20050;-86
2021/10/25 06:47:24;;;;;;;8.18;5.72;;;;;;;6.16;72.33;100585.50;4989221;28;20054;-87
2021/10/25 06:49:53;;;;;;;8.05;5.32;;;;;;;6.15;72.20;100581.91;4989445;28;20047;-86
2021/10/25 06:52:23;;;;;;;9.87;5.70;;;;;;;6.20;72.23;100587.44;4995673;28;20050;-85
2021/10/25 06:54:51;;;;;;;8.25;5.22;;;;;;;6.22;72.10;100595.44;4978833;28;20462;-86
2021/10/25 06:57:18;;;;;;;10.18;6.10;;;;;;;6.28;72.47;100599.84;4986782;28;20062;-83
2021/10/25 06:59:47;;;;;;;8.27;5.18;;;;;;;6.34;72.39;100609.78;4989281;28;20058;-84
2021/10/25 07:02:15;;;;;;;10.23;5.75;;;;;;;6.40;72.41;100611.41;4992856;28;20062;-83
2021/10/25 07:04:44;;;;;;;9.48;5.57;;;;;;;6.47;72.59;100608.34;4991290;28;20057;-83
2021/10/25 07:07:11;;;;;;;11.85;5.55;;;;;;;6.59;72.20;100610.78;4996691;28;20054;-83
2021/10/25 07:09:40;;;;;;;8.43;6.00;;;;;;;6.65;72.95;100606.88;4997429;28;20046;-83
2021/10/25 07:12:08;;;;;;;8.63;6.35;;;;;;;6.78;72.74;100620.06;4994894;28;20057;-85
2021/10/25 07:14:37;;;;;;;8.00;5.55;;;;;;;6.86;72.33;100621.41;4994938;28;20057;-87
2021/10/25 07:17:16;;;;;;;10.10;5.25;;;;;;;6.89;71.45;100627.22;4992518;28;20066;-84
2021/10/25 08:07:34;;;;;;;8.02;6.03;;;;;;;13.07;50.58;100608.88;4983872;28;20058;-87
2021/10/25 08:10:06;;;;;;;9.95;6.32;;;;;;;13.48;50.07;100603.94;4993189;28;20058;-89
2021/10/25 08:12:35;;;;;;;10.43;6.32;;;;;;;14.10;49.33;100608.25;4995546;28;20061;-85
2021/10/25 08:15:07;;;;;;;10.98;7.30;;;;;;;14.99;47.47;100605.50;4996125;28;20435;-84
2021/10/25 08:17:42;;;;;;;13.25;7.05;;;;;;;15.56;46.42;100604.03;4996298;28;20069;-84
2021/10/25 08:20:11;;;;;;;8.60;6.10;;;;;;;17.01;43.46;100591.69;4998446;28;20082;-85
2021/10/25 08:22:41;;;;;;;8.65;6.40;;;;;;;18.31;41.19;100591.31;4987080;28;20069;-86
2021/10/25 08:25:10;;;;;;;11.75;7.75;;;;;;;19.35;38.65;100585.25;4997557;28;20050;-83
2021/10/25 08:27:38;;;;;;;9.32;5.28;;;;;;;20.73;35.92;100593.06;4982221;28;20066;-84
2021/10/25 08:30:07;;;;;;;6.53;4.28;;;;;;;21.84;33.82;100582.38;5004451;28;20053;-84
2021/10/25 08:32:59;;;;;;;5.60;3.50;;;;;;;22.95;31.39;100577.66;4994847;28;20066;-87
2021/10/25 08:35:50;;;;;;;6.85;4.57;;;;;;;24.29;29.14;100591.13;4993924;28;20400;-84
2021/10/25 08:41:04;;;;;;;5.90;3.90;;;;;;;26.23;26.19;100576.28;4998891;28;20427;-85
2021/10/25 08:43:32;;;;;;;3.85;2.30;;;;;;;26.24;25.22;100570.13;4992139;28;20061;-86
2021/10/25 08:46:03;;;;;;;3.95;2.53;;;;;;;26.06;24.80;100578.84;4995328;28;20046;-87
2021/10/25 08:48:43;;;;;;;3.33;2.40;;;;;;;25.89;25.54;100576.91;4992454;28;20051;-83
2021/10/25 08:51:11;;;;;;;2.75;2.38;;;;;;;25.17;26.43;100573.53;4992431;28;20053;-84
2021/10/25 08:53:40;;;;;;;4.55;2.50;;;;;;;25.91;25.42;100572.44;4992588;28;20046;-88
2021/10/25 08:56:08;;;;;;;5.55;2.58;;;;;;;26.13;24.74;100570.22;4994671;28;20050;-89
2021/10/25 08:58:38;;;;;;;3.93;2.30;;;;;;;25.47;25.95;100567.31;4993964;28;20054;-85
2021/10/25 09:01:05;;;;;;;3.78;2.30;;;;;;;25.17;26.37;100579.22;4995273;28;20051;-86
2021/10/25 09:03:34;;;;;;;4.63;2.65;;;;;;;25.64;25.91;100568.47;4997698;28;20046;-87
2021/10/25 09:06:05;;;;;;;4.10;2.42;;;;;;;25.42;25.80;100571.41;4994728;28;20049;-84
2021/10/25 09:08:33;;;;;;;3.70;2.40;;;;;;;25.03;25.72;100580.91;4998898;28;20057;-86
2021/10/25 09:11:02;;;;;;;4.65;2.50;;;;;;;24.83;26.34;100582.59;4993964;28;20472;-89
2021/10/25 09:13:30;;;;;;;4.38;2.63;;;;;;;24.86;26.00;100567.50;4985200;28;20057;-88
2021/10/25 09:15:59;;;;;;;4.30;2.22;;;;;;;24.89;25.92;100572.41;4998154;28;20062;-88
2021/10/25 09:18:28;;;;;;;4.13;2.50;;;;;;;24.44;26.41;100580.53;4996020;28;20073;-86
2021/10/25 09:20:59;;;;;;;4.03;2.60;;;;;;;24.57;26.89;100570.41;4999092;28;20514;-88
2021/10/25 09:23:28;;;;;;;4.00;2.60;;;;;;;23.93;27.20;100578.88;4993291;28;20065;-86
2021/10/25 09:25:58;;;;;;;4.55;2.65;;;;;;;24.34;27.25;100567.97;4997606;28;20050;-87
2021/10/25 09:28:30;;;;;;;4.18;2.25;;;;;;;25.42;25.80;100562.88;5004882;28;20405;-83
2021/10/25 09:31:00;;;;;;;7.22;2.63;;;;;;;25.59;25.81;100563.19;4996700;28;20042;-87
2021/10/25 09:33:35;;;;;;;3.28;2.22;;;;;;;26.12;25.26;100570.63;5006473;28;20065;-86
2021/10/25 09:36:06;;;;;;;3.22;2.33;;;;;;;26.78;24.21;100571.75;4998664;28;20061;-87
2021/10/25 09:38:43;;;;;;;3.28;2.40;;;;;;;26.83;24.01;100568.41;4998858;28;20504;-84
2021/10/25 09:49:55;;;;;;;2.80;1.80;;;;;;;28.02;22.37;100557.13;5140728;27;20412;-55
2021/10/25 09:52:29;;;;;;;3.53;2.45;;;;;;;27.93;22.20;100554.81;5125485;27;20129;-54
2021/10/25 09:55:02;;;;;;;4.05;2.00;;;;;;;27.74;22.61;100558.34;5127890;27;20051;-55
2021/10/25 09:57:41;;;;;;;3.58;1.70;;;;;;;27.20;23.08;100556.16;5126487;28;20048;-55
2021/10/25 10:00:11;;;;;;;4.00;2.10;;;;;;;26.46;24.38;100549.97;5124817;27;20059;-55
2021/10/25 10:02:39;;;;;;;3.38;2.25;;;;;;;25.97;24.53;100563.41;5124934;27;20915;-55
2021/10/25 10:05:10;;;;;;;3.17;2.15;;;;;;;26.17;24.48;100557.97;5133174;27;20395;-54
2021/10/25 10:07:38;;;;;;;3.42;2.10;;;;;;;26.34;24.52;100548.44;5128974;27;20047;-56
2021/10/25 10:10:09;;;;;;;3.53;1.98;;;;;;;27.33;24.03;100550.69;5123036;27;20055;-54
2021/10/25 10:12:40;;;;;;;2.75;1.95;;;;;;;26.87;23.81;100544.25;5123576;27;20063;-55
2021/10/25 10:15:10;;;;;;;4.35;2.17;;;;;;;27.32;23.58;100546.25;5131574;27;20062;-55
2021/10/25 10:17:42;;;;;;;3.83;1.90;;;;;;;27.98;22.91;100539.19;5135437;27;20046;-53
2021/10/25 10:20:12;;;;;;;3.00;1.85;;;;;;;28.47;22.95;100541.63;5141002;27;20055;-54
2021/10/25 10:22:46;;;;;;;4.95;2.10;;;;;;;27.52;22.91;100540.66;5126522;27;20047;-54
2021/10/25 10:25:13;;;;;;;2.88;2.13;;;;;;;27.78;22.66;100541.91;5123195;27;20413;-56
2021/10/25 10:27:41;;;;;;;3.85;2.22;;;;;;;27.66;23.19;100522.47;5123699;27;20051;-53
2021/10/25 10:30:11;;;;;;;3.80;2.13;;;;;;;27.98;23.03;100530.59;5122582;27;20156;-53
2021/10/25 10:32:38;;;;;;;5.38;1.80;;;;;;;28.53;22.46;100532.13;5126230;27;20412;-56
2021/10/25 10:35:09;;;;;;;4.72;2.50;;;;;;;28.56;22.00;100530.47;5127470;27;20409;-55
2021/10/25 10:37:40;;;;;;;3.17;1.60;;;;;;;29.44;21.12;100540.63;5124755;27;20082;-55
2021/10/25 10:40:13;;;;;;;3.50;2.20;;;;;;;27.82;22.51;100541.84;5122768;27;20058;-54
2021/10/25 10:42:44;;;;;;;4.13;1.80;;;;;;;28.24;22.80;100533.84;5125258;27;20078;-54
2021/10/25 10:45:21;;;;;;;4.97;1.95;;;;;;;27.63;22.93;100535.56;5125134;27;20051;-54
2021/10/25 10:47:56;;;;;;;2.60;1.73;;;;;;;28.45;22.06;100524.88;5124378;27;20048;-53
2021/10/25 10:50:28;;;;;;;3.70;2.03;;;;;;;28.51;22.29;100539.56;5123947;28;20055;-53
2021/10/25 10:53:00;;;;;;;2.83;1.90;;;;;;;28.80;22.29;100536.16;5121587;27;20074;-54
2021/10/25 10:55:29;;;;;;;2.85;1.77;;;;;;;28.92;21.88;100532.66;5112738;27;20427;-56
2021/10/25 10:58:22;;;;;;;3.95;2.10;;;;;;;28.92;22.30;100544.13;5108792;28;20055;-55
2021/10/25 11:01:02;;;;;;;3.58;1.83;;;;;;;27.53;23.28;100531.63;5112258;28;20056;-56
2021/10/25 11:03:30;;;;;;;2.25;1.80;;;;;;;26.10;25.21;100533.13;5110705;28;20052;-53
2021/10/25 11:06:01;;;;;;;4.55;2.15;;;;;;;25.41;26.40;100529.88;5110894;28;20063;-55
2021/10/25 11:08:32;;;;;;;2.92;1.98;;;;;;;25.56;26.14;100524.91;5107799;28;20052;-54
2021/10/25 11:11:02;;;;;;;3.83;1.98;;;;;;;25.02;27.32;100545.06;5111335;28;20425;-56
2021/10/25 11:13:32;;;;;;;3.28;2.15;;;;;;;24.83;27.84;100526.41;5110875;28;20063;-55
2021/10/25 11:16:05;;;;;;;3.13;1.80;;;;;;;25.41;27.85;100527.03;5108670;28;20056;-56
2021/10/25 11:18:35;;;;;;;3.13;1.90;;;;;;;25.78;26.82;100519.06;5106361;28;20055;-55
2021/10/25 11:21:07;;;;;;;4.00;1.90;;;;;;;25.83;26.65;100519.44;5101545;28;20055;-53
2021/10/25 11:23:44;;;;;;;3.42;2.30;;;;;;;26.06;26.22;100524.59;5107048;28;20043;-53
2021/10/25 11:26:13;;;;;;;2.90;1.75;;;;;;;25.76;27.09;100527.22;5110647;28;20051;-53
2021/10/25 11:28:40;;;;;;;;;;;;;;;25.44;27.39;100522.53;5114232;28;20055;-53
2021/10/25 11:31:10;;;;;;;3.50;1.50;;;;;;;25.14;27.65;100514.50;5110290;28;19927;-53
2021/10/25 11:33:46;;;;;;;4.15;1.90;;;;;;;25.66;27.56;100518.34;5112104;28;20051;-54
2021/10/25 11:36:14;;;;;;;4.10;2.30;;;;;;;25.85;27.08;100510.44;5113329;28;20493;-54
2021/10/25 11:38:42;;;;;;;3.97;1.65;;;;;;;25.25;27.80;100516.09;5112221;28;20074;-53
2021/10/25 11:41:10;;;;;;;4.25;1.98;;;;;;;24.71;28.81;100513.44;5110791;28;20486;-53
2021/10/25 11:43:37;;;;;;;4.03;1.80;;;;;;;23.46;30.91;100519.03;5112334;28;20101;-54
2021/10/25 11:46:17;;;;;;;3.58;1.77;;;;;;;23.45;30.57;100523.88;5110262;28;20425;-53
2021/10/25 11:48:55;;;;;;;3.85;2.40;;;;;;;23.74;31.06;100509.72;5111921;28;20425;-55
2021/10/25 11:51:23;;;;;;;3.80;1.95;;;;;;;24.33;30.51;100503.69;5109467;28;20056;-53
2021/10/25 11:53:58;;;;;;;4.47;2.57;;;;;;;25.06;29.81;100511.69;5112946;28;20051;-54
2021/10/25 11:56:29;;;;;;;3.40;2.08;;;;;;;24.99;28.97;100494.63;5108679;28;20433;-52
2021/10/25 11:58:57;;;;;;;4.13;1.80;;;;;;;25.46;28.29;100489.50;5102954;28;20052;-56
2021/10/25 12:01:30;;;;;;;3.43;1.70;;;;;;;25.89;28.63;100477.84;5111490;28;20505;-54
2021/10/25 12:03:57;;;;;;;3.28;1.83;;;;;;;25.73;27.48;100474.69;5108011;28;20075;-55
2021/10/25 12:06:25;;;;;;;3.03;1.90;;;;;;;26.09;26.89;100480.13;5109338;28;20059;-54
2021/10/25 12:08:59;;;;;;;3.00;1.80;;;;;;;25.90;27.39;100473.75;5111164;28;20061;-56
2021/10/25 12:11:52;;;;;;;4.00;2.00;;;;;;;26.18;26.80;100471.06;5110102;28;20509;-54
2021/10/25 12:14:25;;;;;;;4.03;1.80;;;;;;;25.91;27.17;100468.84;5108463;28;20055;-53
2021/10/25 12:16:55;;;;;;;3.67;1.98;;;;;;;26.52;26.69;100476.84;5106613;28;20429;-53
2021/10/25 12:19:23;;;;;;;3.75;1.90;;;;;;;26.85;26.36;100461.00;5110174;28;20494;-56
2021/10/25 12:21:51;;;;;;;4.72;2.13;;;;;;;27.12;25.73;100465.97;5112002;28;20051;-53
2021/10/25 12:24:21;;;;;;;3.45;2.10;;;;;;;27.34;25.38;100463.66;5107033;28;20051;-53
2021/10/25 12:26:58;;;;;;;3.72;1.73;;;;;;;27.88;25.67;100460.78;5110934;28;20058;-53
2021/10/25 12:29:26;;;;;;;3.38;1.58;;;;;;;26.40;26.95;100458.22;5108765;28;20051;-54
2021/10/25 12:32:09;;;;;;;3.92;1.85;;;;;;;25.62;27.17;100451.09;5110582;28;20067;-54
2021/10/25 12:34:49;;;;;;;3.63;2.15;;;;;;;26.64;26.69;100458.38;5100340;28;20051;-56
2021/10/25 12:37:24;;;;;;;3.92;1.80;;;;;;;26.57;26.35;100447.06;5103598;27;20050;-53
2021/10/25 12:39:52;;;;;;;3.28;1.90;;;;;;;25.57;27.30;100463.78;5110373;28;20043;-54
2021/10/25 12:42:20;;;;;;;5.20;1.90;;;;;;;24.88;28.31;100442.53;5108954;28;20056;-54
2021/10/25 12:44:52;;;;;;;3.72;1.90;;;;;;;24.90;28.52;100446.63;5110173;28;20400;-56
2021/10/25 12:47:23;;;;;;;2.35;1.55;;;;;;;24.82;29.24;100453.56;5108434;28;20054;-54
2021/10/25 12:49:52;;;;;;;2.30;1.83;;;;;;;24.48;29.62;100448.34;5110913;28;20052;-56
2021/10/25 12:52:21;;;;;;;3.50;2.30;;;;;;;24.55;29.09;100449.56;5108628;28;20066;-56
2021/10/25 12:54:51;;;;;;;3.05;1.83;;;;;;;25.06;28.13;100454.66;5107542;28;20052;-56
2021/10/25 12:57:21;;;;;;;3.40;2.05;;;;;;;24.91;28.28;100444.56;5109091;28;20494;-56
2021/10/25 13:00:07;;;;;;;4.43;1.90;;;;;;;24.04;29.35;100443.13;5108433;27;20048;-54
2021/10/25 13:02:43;;;;;;;3.75;1.90;;;;;;;23.52;30.31;100446.34;5104748;28;20062;-55
2021/10/25 13:05:15;;;;;;;5.47;2.10;;;;;;;23.17;31.50;100432.88;5106329;28;20051;-56
2021/10/25 13:07:50;;;;;;;3.70;1.90;;;;;;;23.07;31.78;100442.97;5109311;28;20395;-56